createdAt,value
2022-11-15T00:00:46.693Z,99.48
2022-11-15T00:01:46.712Z,99.16
2022-11-15T00:02:46.684Z,99.05
2022-11-15T00:03:46.674Z,98.95
2022-11-15T00:04:46.660Z,99.00
2022-11-15T00:05:46.641Z,98.95
2022-11-15T00:06:46.665Z,98.95
2022-11-15T00:07:55.757Z,98.95
2022-11-15T00:08:47.624Z,98.95
2022-11-15T00:09:46.627Z,98.95
2022-11-15T00:10:46.623Z,98.95
2022-11-15T00:11:46.622Z,99.05
2022-11-15T00:12:46.586Z,99.16
2022-11-15T00:13:46.583Z,99.27
2022-11-15T00:14:46.585Z,99.58
2022-11-15T00:15:46.562Z,99.68
2022-11-15T00:16:46.536Z,99.68
2022-11-15T00:17:46.523Z,99.68
2022-11-15T00:18:50.534Z,99.68
2022-11-15T00:19:46.507Z,99.79
2022-11-15T00:20:46.516Z,99.79
2022-11-15T00:21:46.467Z,99.74
2022-11-15T00:22:46.476Z,99.90
2022-11-15T00:23:46.465Z,99.95
2022-11-15T00:24:46.447Z,99.85
2022-11-15T00:25:46.467Z,99.85
2022-11-15T00:26:46.447Z,99.74
2022-11-15T00:27:46.445Z,99.74
2022-11-15T00:28:46.435Z,99.68
2022-11-15T00:29:46.428Z,99.64
2022-11-15T00:30:46.456Z,99.54
2022-11-15T00:31:46.417Z,99.54
2022-11-15T00:32:46.426Z,99.58
2022-11-15T00:33:46.408Z,99.43
2022-11-15T00:34:46.399Z,99.43
2022-11-15T00:35:46.408Z,99.43
2022-11-15T00:36:46.396Z,99.27
2022-11-15T00:37:46.389Z,99.27
2022-11-15T00:38:46.376Z,99.27
2022-11-15T00:39:46.379Z,99.27
2022-11-15T00:40:46.387Z,99.16
2022-11-15T00:41:46.360Z,99.05
2022-11-15T00:42:46.381Z,99.05
2022-11-15T00:43:46.368Z,99.05
2022-11-15T00:44:46.367Z,99.05
2022-11-15T00:45:46.370Z,99.05
2022-11-15T00:46:46.358Z,98.95
2022-11-15T00:47:46.350Z,98.95
2022-11-15T00:48:46.350Z,98.85
2022-11-15T00:49:46.350Z,98.74
2022-11-15T00:50:46.351Z,98.64
2022-11-15T00:51:46.330Z,98.68
2022-11-15T00:52:46.331Z,98.64
2022-11-15T00:53:46.302Z,98.64
2022-11-15T00:54:46.312Z,98.74
2022-11-15T00:55:46.312Z,98.79
2022-11-15T00:56:46.292Z,98.85
2022-11-15T00:57:46.370Z,98.95
2022-11-15T00:58:46.272Z,99.00
2022-11-15T00:59:46.272Z,99.00
2022-11-15T01:00:46.321Z,99.00
2022-11-15T01:01:46.264Z,98.79
2022-11-15T01:02:46.242Z,98.79
2022-11-15T01:03:46.249Z,98.68
2022-11-15T01:04:46.236Z,98.68
2022-11-15T01:05:46.245Z,98.79
2022-11-15T01:06:46.298Z,98.79
2022-11-15T01:07:46.232Z,98.89
2022-11-15T01:08:46.211Z,98.79
2022-11-15T01:09:46.216Z,98.89
2022-11-15T01:10:46.214Z,99.10
2022-11-15T01:11:46.213Z,99.31
2022-11-15T01:12:46.194Z,99.46
2022-11-15T01:13:46.213Z,99.46
2022-11-15T01:14:46.188Z,99.35
2022-11-15T01:15:46.194Z,99.57
2022-11-15T01:16:46.205Z,99.77
2022-11-15T01:17:46.205Z,99.88
2022-11-15T01:18:46.205Z,99.88
2022-11-15T01:19:46.214Z,99.88
2022-11-15T01:20:46.205Z,99.88
2022-11-15T01:21:46.212Z,99.77
2022-11-15T01:22:46.215Z,99.67
2022-11-15T01:23:46.205Z,99.67
2022-11-15T01:24:46.197Z,99.77
2022-11-15T01:25:46.206Z,99.84
2022-11-15T01:26:46.202Z,99.88
2022-11-15T01:27:46.196Z,99.88
2022-11-15T01:28:46.207Z,99.77
2022-11-15T01:29:46.207Z,99.77
2022-11-15T01:30:46.206Z,99.77
2022-11-15T01:31:46.236Z,99.67
2022-11-15T01:32:46.204Z,99.46
2022-11-15T01:33:46.216Z,99.25
2022-11-15T01:34:53.244Z,99.15
2022-11-15T01:35:46.243Z,99.04
2022-11-15T01:36:46.226Z,99.04
2022-11-15T01:37:46.247Z,99.15
2022-11-15T01:38:46.243Z,99.25
2022-11-15T01:39:46.240Z,99.15
2022-11-15T01:40:46.239Z,99.04
2022-11-15T01:41:46.256Z,99.15
2022-11-15T01:42:46.251Z,99.25
2022-11-15T01:43:46.239Z,99.35
2022-11-15T01:44:46.248Z,99.35
2022-11-15T01:45:46.259Z,99.35
2022-11-15T01:46:46.261Z,99.25
2022-11-15T01:47:46.278Z,99.15
2022-11-15T01:48:46.266Z,99.15
2022-11-15T01:49:46.275Z,99.15
2022-11-15T01:50:46.258Z,99.15
2022-11-15T01:51:46.397Z,99.15
2022-11-15T01:52:46.273Z,99.15
2022-11-15T01:53:46.268Z,99.25
2022-11-15T01:54:46.251Z,99.25
2022-11-15T01:55:46.249Z,99.25
2022-11-15T01:56:46.232Z,99.04
2022-11-15T01:57:46.229Z,99.08
2022-11-15T01:58:46.229Z,98.88
2022-11-15T01:59:46.222Z,98.77
2022-11-15T02:00:46.234Z,98.67
2022-11-15T02:01:46.209Z,98.67
2022-11-15T02:02:46.209Z,98.67
2022-11-15T02:03:46.221Z,98.67
2022-11-15T02:04:46.202Z,98.77
2022-11-15T02:05:46.190Z,98.98
2022-11-15T02:06:46.204Z,99.30
2022-11-15T02:07:46.220Z,99.51
2022-11-15T02:08:46.216Z,99.71
2022-11-15T02:09:46.190Z,99.99
2022-11-15T02:10:46.203Z,99.99
2022-11-15T02:11:46.191Z,99.99
2022-11-15T02:12:46.171Z,99.99
2022-11-15T02:13:46.184Z,99.99
2022-11-15T02:14:46.190Z,99.99
2022-11-15T02:15:46.172Z,99.99
2022-11-15T02:16:46.189Z,99.82
2022-11-15T02:17:46.174Z,99.71
2022-11-15T02:18:46.165Z,99.82
2022-11-15T02:19:46.183Z,99.93
2022-11-15T02:20:46.144Z,99.93
2022-11-15T02:21:46.149Z,99.93
2022-11-15T02:22:46.140Z,99.93
2022-11-15T02:23:46.135Z,99.93
2022-11-15T02:24:46.123Z,99.82
2022-11-15T02:25:46.104Z,99.71
2022-11-15T02:26:46.103Z,99.71
2022-11-15T02:27:46.083Z,99.71
2022-11-15T02:28:46.092Z,99.71
2022-11-15T02:29:46.093Z,99.61
2022-11-15T02:30:46.085Z,99.71
2022-11-15T02:31:46.093Z,99.61
2022-11-15T02:32:46.075Z,99.61
2022-11-15T02:33:46.084Z,99.51
2022-11-15T02:34:46.094Z,99.51
2022-11-15T02:35:46.095Z,99.40
2022-11-15T02:36:46.086Z,99.30
2022-11-15T02:37:46.077Z,99.19
2022-11-15T02:38:46.086Z,99.51
2022-11-15T02:39:46.078Z,99.61
2022-11-15T02:40:46.085Z,99.71
2022-11-15T02:41:46.095Z,99.71
2022-11-15T02:42:46.460Z,99.71
2022-11-15T02:43:46.094Z,99.71
2022-11-15T02:44:46.117Z,99.61
2022-11-15T02:45:46.116Z,99.51
2022-11-15T02:46:46.108Z,99.51
2022-11-15T02:47:46.087Z,99.40
2022-11-15T02:48:46.076Z,99.34
2022-11-15T02:49:46.086Z,99.30
2022-11-15T02:50:46.107Z,99.51
2022-11-15T02:51:46.079Z,99.71
2022-11-15T02:52:46.077Z,99.82
2022-11-15T02:53:46.066Z,99.76
2022-11-15T02:54:46.058Z,99.55
2022-11-15T02:55:46.051Z,99.66
2022-11-15T02:56:46.077Z,99.99
2022-11-15T02:57:46.038Z,99.99
2022-11-15T02:58:46.030Z,99.99
2022-11-15T02:59:46.018Z,99.99
2022-11-15T03:00:46.057Z,99.99
2022-11-15T03:01:46.008Z,99.99
2022-11-15T03:02:45.999Z,99.99
2022-11-15T03:03:45.982Z,99.99
2022-11-15T03:04:45.979Z,99.99
2022-11-15T03:05:45.984Z,99.93
2022-11-15T03:06:46.047Z,99.99
2022-11-15T03:07:45.958Z,99.99
2022-11-15T03:08:45.951Z,99.99
2022-11-15T03:09:45.952Z,99.99
2022-11-15T03:10:45.959Z,99.93
2022-11-15T03:11:45.939Z,99.87
2022-11-15T03:12:45.972Z,99.55
2022-11-15T03:13:45.932Z,99.44
2022-11-15T03:14:45.920Z,99.34
2022-11-15T03:15:45.921Z,99.24
2022-11-15T03:16:45.921Z,99.03
2022-11-15T03:17:45.911Z,98.92
2022-11-15T03:18:45.892Z,98.82
2022-11-15T03:19:45.899Z,98.92
2022-11-15T03:20:45.890Z,99.13
2022-11-15T03:21:45.888Z,99.24
2022-11-15T03:22:45.902Z,99.34
2022-11-15T03:23:45.871Z,99.44
2022-11-15T03:24:45.884Z,99.44
2022-11-15T03:25:45.871Z,99.34
2022-11-15T03:26:45.873Z,99.34
2022-11-15T03:27:45.895Z,99.34
2022-11-15T03:28:45.891Z,99.34
2022-11-15T03:29:45.861Z,99.24
2022-11-15T03:30:45.862Z,99.13
2022-11-15T03:31:49.969Z,99.03
2022-11-15T03:32:47.993Z,99.07
2022-11-15T03:33:45.842Z,98.97
2022-11-15T03:34:45.854Z,98.92
2022-11-15T03:35:45.863Z,98.97
2022-11-15T03:36:45.873Z,98.92
2022-11-15T03:37:45.949Z,99.07
2022-11-15T03:38:45.873Z,99.13
2022-11-15T03:39:45.846Z,99.34
2022-11-15T03:40:45.834Z,99.34
2022-11-15T03:41:45.835Z,99.44
2022-11-15T03:42:45.846Z,99.44
2022-11-15T03:43:45.853Z,99.55
2022-11-15T03:44:45.833Z,99.44
2022-11-15T03:45:45.848Z,99.34
2022-11-15T03:46:45.857Z,99.24
2022-11-15T03:47:45.842Z,99.24
2022-11-15T03:48:45.864Z,99.24
2022-11-15T03:49:45.845Z,99.28
2022-11-15T03:50:45.846Z,99.28
2022-11-15T03:51:45.838Z,99.03
2022-11-15T03:52:45.864Z,99.07
2022-11-15T03:53:45.885Z,99.07
2022-11-15T03:54:45.845Z,99.07
2022-11-15T03:55:45.835Z,99.07
2022-11-15T03:56:45.856Z,99.07
2022-11-15T03:57:45.835Z,99.18
2022-11-15T03:58:45.828Z,99.28
2022-11-15T03:59:45.836Z,99.28
2022-11-15T04:00:45.876Z,99.28
2022-11-15T04:01:45.808Z,99.18
2022-11-15T04:02:45.820Z,99.07
2022-11-15T04:03:45.817Z,98.97
2022-11-15T04:04:45.838Z,98.86
2022-11-15T04:05:45.829Z,98.75
2022-11-15T04:06:45.878Z,98.97
2022-11-15T04:07:45.827Z,99.07
2022-11-15T04:08:45.878Z,98.97
2022-11-15T04:09:45.860Z,98.86
2022-11-15T04:10:45.854Z,98.75
2022-11-15T04:11:45.841Z,98.86
2022-11-15T04:12:45.871Z,98.91
2022-11-15T04:13:45.850Z,98.91
2022-11-15T04:14:45.881Z,98.80
2022-11-15T04:15:45.865Z,99.01
2022-11-15T04:16:45.859Z,99.01
2022-11-15T04:17:45.858Z,99.11
2022-11-15T04:18:45.872Z,99.22
2022-11-15T04:19:45.921Z,99.33
2022-11-15T04:20:45.870Z,99.22
2022-11-15T04:21:45.863Z,99.33
2022-11-15T04:22:45.873Z,99.33
2022-11-15T04:23:45.881Z,99.33
2022-11-15T04:24:45.901Z,99.33
2022-11-15T04:25:45.901Z,99.38
2022-11-15T04:26:45.891Z,99.43
2022-11-15T04:27:45.903Z,99.38
2022-11-15T04:28:45.902Z,99.43
2022-11-15T04:29:45.911Z,99.49
2022-11-15T04:30:45.931Z,99.43
2022-11-15T04:31:45.932Z,99.43
2022-11-15T04:32:45.922Z,99.33
2022-11-15T04:33:45.929Z,99.54
2022-11-15T04:34:45.941Z,99.64
2022-11-15T04:35:45.944Z,99.54
2022-11-15T04:36:45.943Z,99.43
2022-11-15T04:37:49.271Z,99.22
2022-11-15T04:38:45.941Z,99.11
2022-11-15T04:39:46.048Z,99.11
2022-11-15T04:40:45.973Z,98.91
2022-11-15T04:41:45.944Z,98.91
2022-11-15T04:42:45.972Z,98.80
2022-11-15T04:43:45.946Z,98.59
2022-11-15T04:44:45.955Z,98.59
2022-11-15T04:45:45.965Z,98.59
2022-11-15T04:46:45.955Z,98.59
2022-11-15T04:47:45.940Z,98.74
2022-11-15T04:48:45.966Z,98.69
2022-11-15T04:49:45.952Z,98.80
2022-11-15T04:50:45.964Z,98.91
2022-11-15T04:51:45.937Z,99.11
2022-11-15T04:52:45.945Z,99.33
2022-11-15T04:53:45.933Z,99.22
2022-11-15T04:54:45.949Z,99.22
2022-11-15T04:55:45.954Z,99.22
2022-11-15T04:56:45.936Z,99.11
2022-11-15T04:57:45.948Z,99.22
2022-11-15T04:58:45.962Z,99.11
2022-11-15T04:59:45.946Z,99.11
2022-11-15T05:00:45.983Z,99.11
2022-11-15T05:01:45.943Z,99.01
2022-11-15T05:02:45.927Z,98.91
2022-11-15T05:03:45.935Z,98.91
2022-11-15T05:04:45.934Z,99.01
2022-11-15T05:05:45.936Z,99.01
2022-11-15T05:06:45.997Z,99.01
2022-11-15T05:07:45.925Z,99.01
2022-11-15T05:08:45.962Z,98.91
2022-11-15T05:09:45.938Z,98.69
2022-11-15T05:10:45.940Z,98.64
2022-11-15T05:11:45.956Z,98.64
2022-11-15T05:12:45.946Z,98.85
2022-11-15T05:13:45.939Z,98.85
2022-11-15T05:14:45.926Z,98.85
2022-11-15T05:15:45.936Z,98.74
2022-11-15T05:16:45.947Z,98.74
2022-11-15T05:17:45.939Z,98.64
2022-11-15T05:18:45.927Z,98.74
2022-11-15T05:19:46.010Z,98.74
2022-11-15T05:20:45.937Z,98.74
2022-11-15T05:21:45.959Z,98.64
2022-11-15T05:22:45.938Z,98.64
2022-11-15T05:23:45.942Z,98.64
2022-11-15T05:24:45.957Z,98.74
2022-11-15T05:25:45.960Z,98.85
2022-11-15T05:26:45.958Z,98.95
2022-11-15T05:27:45.948Z,98.95
2022-11-15T05:28:45.980Z,98.95
2022-11-15T05:29:45.972Z,98.95
2022-11-15T05:30:45.979Z,98.95
2022-11-15T05:31:45.999Z,98.95
2022-11-15T05:32:45.984Z,98.95
2022-11-15T05:33:45.987Z,98.91
2022-11-15T05:34:46.003Z,99.05
2022-11-15T05:35:46.010Z,99.16
2022-11-15T05:36:46.012Z,99.05
2022-11-15T05:37:46.003Z,99.11
2022-11-15T05:38:46.017Z,99.01
2022-11-15T05:39:46.029Z,98.95
2022-11-15T05:40:46.010Z,98.85
2022-11-15T05:41:46.042Z,98.74
2022-11-15T05:42:46.033Z,98.64
2022-11-15T05:43:46.051Z,98.53
2022-11-15T05:44:46.091Z,98.43
2022-11-15T05:45:46.026Z,98.32
2022-11-15T05:46:46.047Z,98.32
2022-11-15T05:47:46.062Z,98.32
2022-11-15T05:48:46.044Z,98.32
2022-11-15T05:49:46.052Z,98.32
2022-11-15T05:50:46.041Z,98.32
2022-11-15T05:51:46.105Z,98.53
2022-11-15T05:52:46.071Z,98.64
2022-11-15T05:53:46.074Z,98.74
2022-11-15T05:54:46.075Z,98.95
2022-11-15T05:55:46.073Z,99.05
2022-11-15T05:56:46.083Z,99.05
2022-11-15T05:57:46.133Z,99.05
2022-11-15T05:58:46.093Z,98.85
2022-11-15T05:59:46.115Z,98.58
2022-11-15T06:00:46.114Z,98.36
2022-11-15T06:01:46.204Z,98.36
2022-11-15T06:02:46.138Z,98.26
2022-11-15T06:03:46.126Z,98.36
2022-11-15T06:04:46.115Z,98.26
2022-11-15T06:05:46.126Z,98.26
2022-11-15T06:06:46.176Z,98.05
2022-11-15T06:07:46.127Z,98.16
2022-11-15T06:08:46.133Z,98.05
2022-11-15T06:09:46.159Z,98.16
2022-11-15T06:10:46.133Z,98.26
2022-11-15T06:11:46.151Z,98.36
2022-11-15T06:12:46.147Z,98.47
2022-11-15T06:13:46.186Z,98.79
2022-11-15T06:14:46.168Z,98.89
2022-11-15T06:15:46.198Z,99.00
2022-11-15T06:16:46.188Z,99.00
2022-11-15T06:17:46.196Z,99.10
2022-11-15T06:18:46.226Z,98.89
2022-11-15T06:19:46.227Z,99.00
2022-11-15T06:20:46.227Z,99.00
2022-11-15T06:21:46.237Z,99.00
2022-11-15T06:22:46.237Z,99.00
2022-11-15T06:23:46.276Z,99.00
2022-11-15T06:24:46.266Z,98.68
2022-11-15T06:25:46.278Z,98.58
2022-11-15T06:26:46.271Z,98.47
2022-11-15T06:27:46.278Z,98.47
2022-11-15T06:28:46.299Z,98.36
2022-11-15T06:29:46.277Z,98.36
2022-11-15T06:30:49.186Z,98.36
2022-11-15T06:31:47.310Z,98.36
2022-11-15T06:32:46.297Z,98.36
2022-11-15T06:33:46.346Z,98.36
2022-11-15T06:34:46.309Z,98.36
2022-11-15T06:35:46.316Z,98.36
2022-11-15T06:36:46.311Z,98.36
2022-11-15T06:37:46.328Z,98.36
2022-11-15T06:38:46.362Z,98.47
2022-11-15T06:39:46.330Z,98.36
2022-11-15T06:40:46.349Z,98.36
2022-11-15T06:41:46.364Z,98.47
2022-11-15T06:42:46.339Z,98.53
2022-11-15T06:43:46.379Z,98.64
2022-11-15T06:44:46.371Z,98.79
2022-11-15T06:45:46.387Z,98.79
2022-11-15T06:46:46.371Z,98.79
2022-11-15T06:47:46.380Z,98.68
2022-11-15T06:48:46.401Z,98.47
2022-11-15T06:49:46.401Z,98.32
2022-11-15T06:50:46.384Z,98.26
2022-11-15T06:51:46.403Z,98.22
2022-11-15T06:52:46.406Z,98.36
2022-11-15T06:53:46.391Z,98.32
2022-11-15T06:54:46.421Z,98.36
2022-11-15T06:55:46.409Z,98.36
2022-11-15T06:56:46.397Z,98.32
2022-11-15T06:57:46.410Z,98.32
2022-11-15T06:58:46.402Z,98.32
2022-11-15T06:59:46.441Z,98.43
2022-11-15T07:00:46.403Z,98.53
2022-11-15T07:01:46.506Z,98.64
2022-11-15T07:02:46.429Z,98.74
2022-11-15T07:03:46.422Z,98.74
2022-11-15T07:04:46.435Z,98.91
2022-11-15T07:05:46.434Z,99.05
2022-11-15T07:06:46.456Z,99.16
2022-11-15T07:07:46.432Z,99.11
2022-11-15T07:08:46.415Z,99.05
2022-11-15T07:09:46.460Z,99.22
2022-11-15T07:10:46.430Z,99.33
2022-11-15T07:11:46.431Z,99.43
2022-11-15T07:12:46.425Z,99.43
2022-11-15T07:13:46.443Z,99.33
2022-11-15T07:14:46.467Z,99.22
2022-11-15T07:15:46.451Z,99.22
2022-11-15T07:16:46.456Z,99.18
2022-11-15T07:17:46.485Z,99.28
2022-11-15T07:18:46.482Z,99.43
2022-11-15T07:19:46.531Z,99.38
2022-11-15T07:20:46.489Z,99.60
2022-11-15T07:21:46.494Z,99.70
2022-11-15T07:22:46.506Z,99.60
2022-11-15T07:23:46.662Z,99.60
2022-11-15T07:24:46.569Z,99.60
2022-11-15T07:25:46.597Z,99.60
2022-11-15T07:26:46.548Z,99.55
2022-11-15T07:27:46.557Z,99.66
2022-11-15T07:28:46.558Z,99.76
2022-11-15T07:29:46.591Z,99.97
2022-11-15T07:30:46.577Z,99.99
2022-11-15T07:31:46.607Z,99.99
2022-11-15T07:32:46.577Z,99.99
2022-11-15T07:33:46.608Z,99.99
2022-11-15T07:35:42.429Z,99.99
2022-11-15T07:36:42.359Z,99.99
2022-11-15T07:37:42.300Z,99.93
2022-11-15T07:38:43.031Z,99.82
2022-11-15T07:39:42.172Z,99.82
2022-11-15T07:40:42.131Z,99.71
2022-11-15T07:41:42.033Z,99.61
2022-11-15T07:42:41.973Z,99.61
2022-11-15T07:43:41.922Z,99.51
2022-11-15T07:44:41.844Z,99.46
2022-11-15T07:45:41.804Z,99.57
2022-11-15T07:46:41.702Z,99.57
2022-11-15T07:47:41.650Z,99.88
2022-11-15T07:48:44.864Z,99.99
2022-11-15T07:49:41.501Z,99.99
2022-11-15T07:50:41.452Z,99.99
2022-11-15T07:51:41.367Z,99.99
2022-11-15T07:52:41.304Z,99.99
2022-11-15T07:53:41.234Z,99.99
2022-11-15T07:54:41.156Z,99.99
2022-11-15T07:55:41.103Z,99.99
2022-11-15T07:56:41.015Z,99.99
2022-11-15T07:57:40.956Z,99.99
2022-11-15T07:58:40.890Z,99.99
2022-11-15T07:59:40.825Z,99.99
2022-11-15T08:00:40.763Z,99.99
2022-11-15T08:01:40.887Z,99.99
2022-11-15T08:02:41.388Z,99.99
2022-11-15T08:03:40.556Z,99.99
2022-11-15T08:04:40.486Z,99.99
2022-11-15T08:05:40.418Z,99.99
2022-11-15T08:06:40.368Z,99.99
2022-11-15T08:07:40.296Z,99.99
2022-11-15T08:08:40.236Z,99.99
2022-11-15T08:09:40.174Z,99.99
2022-11-15T08:10:40.900Z,99.99
2022-11-15T08:11:40.047Z,99.99
2022-11-15T08:12:40.055Z,99.99
2022-11-15T08:13:39.878Z,99.99
2022-11-15T08:14:39.799Z,99.99
2022-11-15T08:15:39.747Z,99.99
2022-11-15T08:16:39.681Z,99.99
2022-11-15T08:17:39.588Z,99.99
2022-11-15T08:18:39.548Z,99.99
2022-11-15T08:19:39.448Z,99.99
2022-11-15T08:20:39.368Z,99.99
2022-11-15T08:21:39.309Z,99.84
2022-11-15T08:22:39.250Z,99.74
2022-11-15T08:23:39.159Z,99.74
2022-11-15T08:24:39.069Z,99.69
2022-11-15T08:25:39.025Z,99.69
2022-11-15T08:26:38.911Z,99.69
2022-11-15T08:27:38.927Z,99.65
2022-11-15T08:28:38.779Z,99.54
2022-11-15T08:29:38.687Z,99.44
2022-11-15T08:30:38.611Z,99.33
2022-11-15T08:31:38.540Z,99.02
2022-11-15T08:32:38.460Z,98.82
2022-11-15T08:33:38.362Z,98.92
2022-11-15T08:34:38.294Z,98.87
2022-11-15T08:35:38.213Z,98.87
2022-11-15T08:36:43.262Z,98.77
2022-11-15T08:37:39.062Z,98.72
2022-11-15T08:38:37.962Z,98.72
2022-11-15T08:39:37.876Z,98.62
2022-11-15T08:40:37.790Z,98.72
2022-11-15T08:41:37.836Z,98.78
2022-11-15T08:42:37.625Z,98.88
2022-11-15T08:43:37.530Z,98.99
2022-11-15T08:44:37.450Z,98.99
2022-11-15T08:45:37.353Z,98.99
2022-11-15T08:46:37.267Z,99.05
2022-11-15T08:47:37.183Z,99.05
2022-11-15T08:48:37.114Z,99.15
2022-11-15T08:49:37.012Z,99.21
2022-11-15T08:50:36.902Z,99.21
2022-11-15T08:51:36.822Z,99.32
2022-11-15T08:52:36.727Z,99.32
2022-11-15T08:53:36.654Z,99.27
2022-11-15T08:54:36.537Z,99.27
2022-11-15T08:55:36.448Z,99.16
2022-11-15T08:56:36.343Z,99.06
2022-11-15T08:57:36.246Z,99.33
2022-11-15T08:58:36.164Z,99.38
2022-11-15T08:59:36.066Z,99.28
2022-11-15T09:00:35.957Z,99.07
2022-11-15T09:01:35.951Z,98.45
2022-11-15T09:02:35.774Z,98.35
2022-11-15T09:03:35.666Z,98.24
2022-11-15T09:04:35.576Z,98.20
2022-11-15T09:05:35.465Z,98.20
2022-11-15T09:06:37.761Z,98.30
2022-11-15T09:07:36.293Z,98.26
2022-11-15T09:08:51.854Z,98.26
2022-11-15T09:09:36.056Z,98.36
2022-11-15T09:10:34.928Z,98.26
2022-11-15T09:11:34.855Z,98.26
2022-11-15T09:12:34.718Z,98.21
2022-11-15T09:13:34.609Z,98.11
2022-11-15T09:14:34.529Z,98.11
2022-11-15T09:15:34.399Z,98.21
2022-11-15T09:16:34.280Z,98.38
2022-11-15T09:17:34.189Z,98.38
2022-11-15T09:18:34.482Z,98.38
2022-11-15T09:19:33.950Z,98.17
2022-11-15T09:20:33.830Z,98.07
2022-11-15T09:21:33.731Z,97.91
2022-11-15T09:22:33.600Z,97.91
2022-11-15T09:23:33.502Z,98.33
2022-11-15T09:24:33.400Z,98.64
2022-11-15T09:25:33.281Z,98.60
2022-11-15T09:26:33.141Z,98.60
2022-11-15T09:27:33.040Z,98.44
2022-11-15T09:28:33.418Z,98.34
2022-11-15T09:29:32.799Z,98.19
2022-11-15T09:30:32.696Z,97.99
2022-11-15T09:31:32.560Z,97.78
2022-11-15T09:32:37.788Z,97.99
2022-11-15T09:33:33.584Z,98.15
2022-11-15T09:34:32.213Z,97.89
2022-11-15T09:35:32.112Z,97.59
2022-11-15T09:36:31.964Z,97.17
2022-11-15T09:37:31.863Z,96.92
2022-11-15T09:38:31.940Z,96.82
2022-11-15T09:39:31.614Z,96.82
2022-11-15T09:40:31.504Z,96.36
2022-11-15T09:41:31.354Z,96.36
2022-11-15T09:42:31.225Z,95.84
2022-11-15T09:43:31.116Z,95.12
2022-11-15T09:44:30.986Z,95.12
2022-11-15T09:45:30.870Z,94.77
2022-11-15T09:46:30.726Z,94.56
2022-11-15T09:47:30.607Z,94.46
2022-11-15T09:48:30.851Z,94.35
2022-11-15T09:49:30.367Z,94.46
2022-11-15T09:50:30.219Z,94.31
2022-11-15T09:51:30.087Z,92.66
2022-11-15T09:52:29.969Z,92.76
2022-11-15T09:53:57.534Z,91.89
2022-11-15T09:54:53.475Z,90.86
2022-11-15T09:55:30.578Z,89.07
2022-11-15T09:56:29.448Z,89.38
2022-11-15T09:57:29.323Z,89.44
2022-11-15T09:58:29.509Z,89.65
2022-11-15T09:59:29.049Z,89.13
2022-11-15T10:00:45.792Z,88.51
2022-11-15T10:01:29.803Z,87.90
2022-11-15T10:02:28.639Z,87.85
2022-11-15T10:03:28.500Z,88.68
2022-11-15T10:04:28.377Z,88.68
2022-11-15T10:05:28.244Z,88.57
2022-11-15T10:06:28.122Z,88.68
2022-11-15T10:07:28.030Z,88.53
2022-11-15T10:08:27.829Z,88.43
2022-11-15T10:09:27.702Z,87.15
2022-11-15T10:10:27.557Z,86.85
2022-11-15T10:11:37.142Z,86.74
2022-11-15T10:12:28.273Z,85.71
2022-11-15T10:13:27.133Z,85.71
2022-11-15T10:14:27.013Z,84.99
2022-11-15T10:15:26.859Z,84.95
2022-11-15T10:16:26.724Z,85.26
2022-11-15T10:17:26.574Z,85.16
2022-11-15T10:18:26.423Z,85.53
2022-11-15T10:19:26.295Z,85.63
2022-11-15T10:20:26.141Z,84.50
2022-11-15T10:21:26.018Z,84.91
2022-11-15T10:22:25.847Z,84.81
2022-11-15T10:23:25.737Z,84.09
2022-11-15T10:24:25.585Z,83.37
2022-11-15T10:25:25.448Z,84.20
2022-11-15T10:26:25.294Z,85.43
2022-11-15T10:27:25.134Z,84.81
2022-11-15T10:28:24.996Z,84.20
2022-11-15T10:29:27.224Z,84.47
2022-11-15T10:30:24.706Z,84.40
2022-11-15T10:31:24.586Z,84.16
2022-11-15T10:32:24.415Z,84.16
2022-11-15T10:33:24.268Z,83.33
2022-11-15T10:34:24.109Z,83.70
2022-11-15T10:35:23.957Z,83.81
2022-11-15T10:36:23.816Z,83.91
2022-11-15T10:37:23.678Z,83.70
2022-11-15T10:38:23.519Z,83.87
2022-11-15T10:39:23.371Z,84.08
2022-11-15T10:40:23.230Z,83.98
2022-11-15T10:41:23.075Z,83.22
2022-11-15T10:42:22.949Z,82.81
2022-11-15T10:43:22.779Z,81.88
2022-11-15T10:44:22.658Z,82.50
2022-11-15T10:45:22.490Z,82.29
2022-11-15T10:46:44.489Z,81.37
2022-11-15T10:47:23.215Z,81.57
2022-11-15T10:48:22.050Z,81.85
2022-11-15T10:49:21.902Z,81.99
2022-11-15T10:50:21.821Z,82.26
2022-11-15T10:51:21.600Z,81.78
2022-11-15T10:52:21.466Z,82.09
2022-11-15T10:53:21.305Z,81.02
2022-11-15T10:54:21.365Z,80.51
2022-11-15T10:55:21.008Z,81.13
2022-11-15T10:56:20.840Z,81.43
2022-11-15T10:57:20.692Z,81.54
2022-11-15T10:58:20.554Z,81.13
2022-11-15T10:59:20.396Z,79.38
2022-11-15T11:00:20.260Z,79.69
2022-11-15T11:01:20.164Z,80.31
2022-11-15T11:02:19.925Z,79.35
2022-11-15T11:03:19.787Z,79.66
2022-11-15T11:04:19.627Z,79.86
2022-11-15T11:05:19.447Z,80.17
2022-11-15T11:06:19.296Z,80.88
2022-11-15T11:07:19.192Z,81.20
2022-11-15T11:08:18.989Z,80.88
2022-11-15T11:09:18.819Z,79.75
2022-11-15T11:10:49.373Z,80.68
2022-11-15T11:11:19.499Z,80.54
2022-11-15T11:12:18.349Z,79.52
2022-11-15T11:13:18.187Z,79.72
2022-11-15T11:14:18.017Z,79.31
2022-11-15T11:15:17.839Z,79.31
2022-11-15T11:16:17.691Z,80.03
2022-11-15T11:17:17.519Z,79.27
2022-11-15T11:18:17.359Z,79.52
2022-11-15T11:19:17.191Z,79.72
2022-11-15T11:20:17.020Z,79.89
2022-11-15T11:21:16.862Z,79.21
2022-11-15T11:22:16.712Z,79.48
2022-11-15T11:23:16.521Z,79.27
2022-11-15T11:24:16.383Z,79.79
2022-11-15T11:25:16.192Z,79.58
2022-11-15T11:26:16.032Z,78.97
2022-11-15T11:27:15.881Z,78.86
2022-11-15T11:28:15.692Z,78.35
2022-11-15T11:29:15.542Z,79.27
2022-11-15T11:30:15.408Z,78.56
2022-11-15T11:31:15.203Z,76.98
2022-11-15T11:32:15.031Z,77.80
2022-11-15T11:33:14.855Z,78.01
2022-11-15T11:34:14.695Z,78.83
2022-11-15T11:35:14.526Z,77.29
2022-11-15T11:36:14.346Z,76.43
2022-11-15T11:37:14.173Z,75.72
2022-11-15T11:38:16.373Z,76.03
2022-11-15T11:39:13.834Z,75.42
2022-11-15T11:40:13.749Z,76.09
2022-11-15T11:41:13.497Z,76.50
2022-11-15T11:42:13.336Z,76.81
2022-11-15T11:43:13.166Z,76.91
2022-11-15T11:44:12.999Z,76.50
2022-11-15T11:45:12.849Z,77.32
2022-11-15T11:46:12.667Z,76.40
2022-11-15T11:47:12.496Z,75.79
2022-11-15T11:48:12.326Z,75.89
2022-11-15T11:49:12.167Z,76.71
2022-11-15T11:50:11.989Z,76.61
2022-11-15T11:51:11.797Z,77.01
2022-11-15T11:52:11.619Z,77.22
2022-11-15T11:53:11.441Z,76.71
2022-11-15T11:54:11.269Z,76.09
2022-11-15T11:55:11.110Z,76.81
2022-11-15T11:56:10.920Z,76.20
2022-11-15T11:57:10.730Z,76.09
2022-11-15T11:58:10.581Z,75.89
2022-11-15T11:59:10.401Z,75.27
2022-11-15T12:00:10.242Z,75.89
2022-11-15T12:01:12.740Z,75.68
2022-11-15T12:02:09.986Z,75.85
2022-11-15T12:03:09.817Z,76.06
2022-11-15T12:04:09.523Z,75.96
2022-11-15T12:05:09.382Z,76.06
2022-11-15T12:06:09.195Z,76.16
2022-11-15T12:07:09.089Z,75.65
2022-11-15T12:08:08.844Z,75.24
2022-11-15T12:09:08.684Z,75.96
2022-11-15T12:10:08.525Z,76.88
2022-11-15T12:11:08.333Z,76.16
2022-11-15T12:12:08.158Z,76.06
2022-11-15T12:13:08.053Z,75.75
2022-11-15T12:14:07.815Z,75.34
2022-11-15T12:15:07.626Z,75.14
2022-11-15T12:16:10.258Z,75.85
2022-11-15T12:17:07.286Z,76.16
2022-11-15T12:18:07.096Z,76.06
2022-11-15T12:19:06.931Z,75.96
2022-11-15T12:20:06.757Z,75.85
2022-11-15T12:21:06.597Z,75.31
2022-11-15T12:22:06.408Z,75.62
2022-11-15T12:23:06.246Z,74.49
2022-11-15T12:24:06.083Z,75.00
2022-11-15T12:25:05.889Z,75.41
2022-11-15T12:26:05.739Z,74.69
2022-11-15T12:27:05.561Z,75.31
2022-11-15T12:28:05.391Z,74.90
2022-11-15T12:29:08.087Z,74.90
2022-11-15T12:30:05.052Z,74.59
2022-11-15T12:31:04.928Z,73.88
2022-11-15T12:32:04.681Z,74.08
2022-11-15T12:33:04.501Z,74.18
2022-11-15T12:34:07.108Z,74.80
2022-11-15T12:35:04.165Z,73.84
2022-11-15T12:36:04.012Z,74.18
2022-11-15T12:37:03.830Z,73.84
2022-11-15T12:38:03.664Z,74.29
2022-11-15T12:39:03.502Z,72.21
2022-11-15T12:40:04.265Z,72.92
2022-11-15T12:41:03.144Z,71.70
2022-11-15T12:42:03.012Z,72.92
2022-11-15T12:43:02.805Z,72.62
2022-11-15T12:44:02.641Z,71.77
2022-11-15T12:45:02.455Z,72.58
2022-11-15T12:46:02.286Z,72.07
2022-11-15T12:47:02.125Z,71.46
2022-11-15T12:48:01.944Z,71.77
2022-11-15T12:49:01.767Z,71.97
2022-11-15T12:50:01.578Z,71.05
2022-11-15T12:51:01.397Z,71.77
2022-11-15T12:52:01.217Z,70.85
2022-11-15T12:53:01.037Z,71.56